sensor_id;sensor_type;location;lat;lon;timestamp;P1;durP1;ratioP1;P2;durP2;ratioP2
52590;SDS011;38483;42.620;25.394;2024-03-17T00:00:25;21.57;;;14.07;;
52590;SDS011;38483;42.620;25.394;2024-03-17T00:02:51;18.57;;;13.03;;
52590;SDS011;38483;42.620;25.394;2024-03-17T00:05:17;21.77;;;14.17;;
52590;SDS011;38483;42.620;25.394;2024-03-17T00:07:44;19.90;;;13.47;;
52590;SDS011;38483;42.620;25.394;2024-03-17T00:10:11;19.23;;;13.50;;
52590;SDS011;38483;42.620;25.394;2024-03-17T00:12:37;20.97;;;14.00;;
52590;SDS011;38483;42.620;25.394;2024-03-17T00:15:04;20.60;;;13.03;;
52590;SDS011;38483;42.620;25.394;2024-03-17T00:17:31;20.33;;;13.20;;
52590;SDS011;38483;42.620;25.394;2024-03-17T00:19:56;21.83;;;14.07;;
52590;SDS011;38483;42.620;25.394;2024-03-17T00:22:30;20.57;;;13.83;;
52590;SDS011;38483;42.620;25.394;2024-03-17T00:25:01;20.47;;;15.47;;
52590;SDS011;38483;42.620;25.394;2024-03-17T00:27:28;20.47;;;14.27;;
52590;SDS011;38483;42.620;25.394;2024-03-17T00:29:55;23.93;;;14.93;;
52590;SDS011;38483;42.620;25.394;2024-03-17T00:32:20;22.00;;;14.80;;
52590;SDS011;38483;42.620;25.394;2024-03-17T00:34:47;22.50;;;14.73;;
52590;SDS011;38483;42.620;25.394;2024-03-17T00:37:14;22.63;;;14.87;;
52590;SDS011;38483;42.620;25.394;2024-03-17T00:39:40;25.27;;;15.47;;
52590;SDS011;38483;42.620;25.394;2024-03-17T00:42:06;27.73;;;15.50;;
52590;SDS011;38483;42.620;25.394;2024-03-17T00:44:32;22.20;;;14.80;;
52590;SDS011;38483;42.620;25.394;2024-03-17T00:46:58;21.87;;;14.60;;
52590;SDS011;38483;42.620;25.394;2024-03-17T00:49:24;24.07;;;15.70;;
52590;SDS011;38483;42.620;25.394;2024-03-17T00:51:51;26.53;;;15.93;;
52590;SDS011;38483;42.620;25.394;2024-03-17T00:54:17;27.30;;;17.90;;
52590;SDS011;38483;42.620;25.394;2024-03-17T00:56:43;25.83;;;16.47;;
52590;SDS011;38483;42.620;25.394;2024-03-17T00:59:09;21.00;;;14.47;;
52590;SDS011;38483;42.620;25.394;2024-03-17T01:01:35;22.33;;;15.60;;
52590;SDS011;38483;42.620;25.394;2024-03-17T01:04:01;24.60;;;15.47;;
52590;SDS011;38483;42.620;25.394;2024-03-17T01:06:27;21.20;;;14.73;;
52590;SDS011;38483;42.620;25.394;2024-03-17T01:08:53;24.70;;;16.03;;
52590;SDS011;38483;42.620;25.394;2024-03-17T01:11:19;21.37;;;14.43;;
52590;SDS011;38483;42.620;25.394;2024-03-17T01:13:45;22.63;;;15.03;;
52590;SDS011;38483;42.620;25.394;2024-03-17T01:16:14;21.50;;;14.30;;
52590;SDS011;38483;42.620;25.394;2024-03-17T01:18:41;21.90;;;15.37;;
52590;SDS011;38483;42.620;25.394;2024-03-17T01:21:08;22.97;;;15.37;;
52590;SDS011;38483;42.620;25.394;2024-03-17T01:23:35;23.33;;;15.20;;
52590;SDS011;38483;42.620;25.394;2024-03-17T01:26:01;22.87;;;14.40;;
52590;SDS011;38483;42.620;25.394;2024-03-17T01:28:27;21.60;;;14.70;;
52590;SDS011;38483;42.620;25.394;2024-03-17T01:30:53;20.83;;;14.93;;
52590;SDS011;38483;42.620;25.394;2024-03-17T01:33:19;22.97;;;15.33;;
52590;SDS011;38483;42.620;25.394;2024-03-17T01:35:46;23.77;;;15.73;;
52590;SDS011;38483;42.620;25.394;2024-03-17T01:38:12;23.83;;;14.63;;
52590;SDS011;38483;42.620;25.394;2024-03-17T01:40:38;22.17;;;14.87;;
52590;SDS011;38483;42.620;25.394;2024-03-17T01:43:04;21.27;;;14.53;;
52590;SDS011;38483;42.620;25.394;2024-03-17T01:45:30;20.80;;;14.10;;
52590;SDS011;38483;42.620;25.394;2024-03-17T01:47:58;22.63;;;14.60;;
52590;SDS011;38483;42.620;25.394;2024-03-17T01:50:26;20.53;;;14.17;;
52590;SDS011;38483;42.620;25.394;2024-03-17T01:52:57;19.50;;;13.40;;
52590;SDS011;38483;42.620;25.394;2024-03-17T01:55:26;21.63;;;14.43;;
52590;SDS011;38483;42.620;25.394;2024-03-17T01:57:53;21.63;;;13.87;;
52590;SDS011;38483;42.620;25.394;2024-03-17T02:00:19;21.87;;;14.37;;
52590;SDS011;38483;42.620;25.394;2024-03-17T02:02:46;21.13;;;14.30;;
52590;SDS011;38483;42.620;25.394;2024-03-17T02:05:12;23.87;;;13.57;;
52590;SDS011;38483;42.620;25.394;2024-03-17T02:07:39;18.60;;;12.60;;
52590;SDS011;38483;42.620;25.394;2024-03-17T02:10:06;22.57;;;14.07;;
52590;SDS011;38483;42.620;25.394;2024-03-17T02:12:35;22.13;;;14.37;;
52590;SDS011;38483;42.620;25.394;2024-03-17T02:15:03;21.80;;;14.77;;
52590;SDS011;38483;42.620;25.394;2024-03-17T02:17:33;20.47;;;15.20;;
52590;SDS011;38483;42.620;25.394;2024-03-17T02:20:00;19.97;;;13.17;;
52590;SDS011;38483;42.620;25.394;2024-03-17T02:22:29;26.97;;;14.43;;
52590;SDS011;38483;42.620;25.394;2024-03-17T02:24:56;21.57;;;14.67;;
52590;SDS011;38483;42.620;25.394;2024-03-17T02:27:22;19.27;;;13.97;;
52590;SDS011;38483;42.620;25.394;2024-03-17T02:29:48;20.47;;;13.50;;
52590;SDS011;38483;42.620;25.394;2024-03-17T02:32:14;23.70;;;13.63;;
52590;SDS011;38483;42.620;25.394;2024-03-17T02:34:41;23.33;;;13.67;;
52590;SDS011;38483;42.620;25.394;2024-03-17T02:37:07;19.90;;;13.77;;
52590;SDS011;38483;42.620;25.394;2024-03-17T02:39:33;22.53;;;13.87;;
52590;SDS011;38483;42.620;25.394;2024-03-17T02:42:03;20.80;;;13.97;;
52590;SDS011;38483;42.620;25.394;2024-03-17T02:44:31;23.20;;;13.47;;
52590;SDS011;38483;42.620;25.394;2024-03-17T02:46:58;21.27;;;13.77;;
52590;SDS011;38483;42.620;25.394;2024-03-17T02:49:25;20.13;;;13.63;;
52590;SDS011;38483;42.620;25.394;2024-03-17T02:51:53;22.57;;;14.47;;
52590;SDS011;38483;42.620;25.394;2024-03-17T02:54:20;20.67;;;13.43;;
52590;SDS011;38483;42.620;25.394;2024-03-17T02:56:49;21.23;;;14.53;;
52590;SDS011;38483;42.620;25.394;2024-03-17T02:59:15;22.43;;;13.93;;
52590;SDS011;38483;42.620;25.394;2024-03-17T03:01:41;19.73;;;13.13;;
52590;SDS011;38483;42.620;25.394;2024-03-17T03:04:07;21.93;;;14.33;;
52590;SDS011;38483;42.620;25.394;2024-03-17T03:06:33;19.70;;;13.60;;
52590;SDS011;38483;42.620;25.394;2024-03-17T03:09:00;22.37;;;14.63;;
52590;SDS011;38483;42.620;25.394;2024-03-17T03:11:26;22.30;;;15.27;;
52590;SDS011;38483;42.620;25.394;2024-03-17T03:13:52;24.47;;;14.73;;
52590;SDS011;38483;42.620;25.394;2024-03-17T03:16:18;22.53;;;15.00;;
52590;SDS011;38483;42.620;25.394;2024-03-17T03:18:44;23.37;;;15.73;;
52590;SDS011;38483;42.620;25.394;2024-03-17T03:21:11;22.33;;;15.37;;
52590;SDS011;38483;42.620;25.394;2024-03-17T03:23:38;25.20;;;15.97;;
52590;SDS011;38483;42.620;25.394;2024-03-17T03:26:04;26.17;;;15.73;;
52590;SDS011;38483;42.620;25.394;2024-03-17T03:28:31;22.83;;;14.97;;
52590;SDS011;38483;42.620;25.394;2024-03-17T03:30:59;24.67;;;15.63;;
52590;SDS011;38483;42.620;25.394;2024-03-17T03:33:25;25.03;;;16.80;;
52590;SDS011;38483;42.620;25.394;2024-03-17T03:35:51;25.37;;;16.50;;
52590;SDS011;38483;42.620;25.394;2024-03-17T03:38:17;20.20;;;14.30;;
52590;SDS011;38483;42.620;25.394;2024-03-17T03:40:45;22.13;;;14.77;;
52590;SDS011;38483;42.620;25.394;2024-03-17T03:43:13;24.13;;;14.57;;
52590;SDS011;38483;42.620;25.394;2024-03-17T03:45:40;22.70;;;14.73;;
52590;SDS011;38483;42.620;25.394;2024-03-17T03:48:07;22.40;;;14.33;;
52590;SDS011;38483;42.620;25.394;2024-03-17T03:50:34;19.10;;;13.33;;
52590;SDS011;38483;42.620;25.394;2024-03-17T03:53:01;18.83;;;13.47;;
52590;SDS011;38483;42.620;25.394;2024-03-17T03:55:27;20.77;;;13.07;;
52590;SDS011;38483;42.620;25.394;2024-03-17T03:57:52;18.03;;;12.53;;
52590;SDS011;38483;42.620;25.394;2024-03-17T04:00:19;18.67;;;13.17;;
52590;SDS011;38483;42.620;25.394;2024-03-17T04:02:50;20.90;;;14.27;;
52590;SDS011;38483;42.620;25.394;2024-03-17T04:05:18;22.07;;;13.63;;
52590;SDS011;38483;42.620;25.394;2024-03-17T04:07:45;21.40;;;13.70;;
52590;SDS011;38483;42.620;25.394;2024-03-17T04:10:13;20.73;;;13.77;;
52590;SDS011;38483;42.620;25.394;2024-03-17T04:12:40;21.00;;;13.43;;
52590;SDS011;38483;42.620;25.394;2024-03-17T04:15:06;23.13;;;14.83;;
52590;SDS011;38483;42.620;25.394;2024-03-17T04:17:34;20.00;;;13.73;;
52590;SDS011;38483;42.620;25.394;2024-03-17T04:20:00;20.93;;;14.10;;
52590;SDS011;38483;42.620;25.394;2024-03-17T04:22:26;21.53;;;13.67;;
52590;SDS011;38483;42.620;25.394;2024-03-17T04:24:52;18.67;;;12.87;;
52590;SDS011;38483;42.620;25.394;2024-03-17T04:27:25;20.60;;;13.33;;
52590;SDS011;38483;42.620;25.394;2024-03-17T04:29:53;17.37;;;12.50;;
52590;SDS011;38483;42.620;25.394;2024-03-17T04:32:20;22.50;;;14.17;;
52590;SDS011;38483;42.620;25.394;2024-03-17T04:34:46;23.33;;;14.83;;
52590;SDS011;38483;42.620;25.394;2024-03-17T04:37:15;20.77;;;13.97;;
52590;SDS011;38483;42.620;25.394;2024-03-17T04:39:42;21.33;;;14.97;;
52590;SDS011;38483;42.620;25.394;2024-03-17T04:42:10;22.70;;;15.53;;
52590;SDS011;38483;42.620;25.394;2024-03-17T04:44:38;22.57;;;14.83;;
52590;SDS011;38483;42.620;25.394;2024-03-17T04:47:04;21.27;;;15.00;;
52590;SDS011;38483;42.620;25.394;2024-03-17T04:49:36;20.37;;;14.00;;
52590;SDS011;38483;42.620;25.394;2024-03-17T04:52:03;19.13;;;14.00;;
52590;SDS011;38483;42.620;25.394;2024-03-17T04:54:33;20.23;;;14.80;;
52590;SDS011;38483;42.620;25.394;2024-03-17T04:57:00;22.27;;;14.77;;
52590;SDS011;38483;42.620;25.394;2024-03-17T04:59:27;20.43;;;14.07;;
52590;SDS011;38483;42.620;25.394;2024-03-17T05:01:54;21.67;;;13.50;;
52590;SDS011;38483;42.620;25.394;2024-03-17T05:04:20;25.70;;;15.33;;
52590;SDS011;38483;42.620;25.394;2024-03-17T05:06:46;25.90;;;15.53;;
52590;SDS011;38483;42.620;25.394;2024-03-17T05:09:16;23.07;;;14.60;;
52590;SDS011;38483;42.620;25.394;2024-03-17T05:11:43;23.17;;;14.57;;
52590;SDS011;38483;42.620;25.394;2024-03-17T05:14:09;24.77;;;14.00;;
52590;SDS011;38483;42.620;25.394;2024-03-17T05:16:35;22.33;;;14.80;;
52590;SDS011;38483;42.620;25.394;2024-03-17T05:19:02;21.60;;;15.27;;
52590;SDS011;38483;42.620;25.394;2024-03-17T05:21:29;24.27;;;15.57;;
52590;SDS011;38483;42.620;25.394;2024-03-17T05:23:56;22.87;;;15.33;;
52590;SDS011;38483;42.620;25.394;2024-03-17T05:26:26;29.90;;;17.83;;
52590;SDS011;38483;42.620;25.394;2024-03-17T05:28:53;26.30;;;17.33;;
52590;SDS011;38483;42.620;25.394;2024-03-17T05:31:19;27.03;;;17.67;;
52590;SDS011;38483;42.620;25.394;2024-03-17T05:33:47;22.43;;;15.90;;
52590;SDS011;38483;42.620;25.394;2024-03-17T05:36:14;20.83;;;14.23;;
52590;SDS011;38483;42.620;25.394;2024-03-17T05:38:41;20.57;;;13.67;;
52590;SDS011;38483;42.620;25.394;2024-03-17T05:41:08;18.87;;;12.93;;
52590;SDS011;38483;42.620;25.394;2024-03-17T05:43:35;17.00;;;12.27;;
52590;SDS011;38483;42.620;25.394;2024-03-17T05:46:07;16.43;;;12.13;;
52590;SDS011;38483;42.620;25.394;2024-03-17T05:48:34;16.93;;;12.37;;
52590;SDS011;38483;42.620;25.394;2024-03-17T05:51:05;18.13;;;11.67;;
52590;SDS011;38483;42.620;25.394;2024-03-17T05:53:32;17.30;;;11.80;;
52590;SDS011;38483;42.620;25.394;2024-03-17T05:55:58;15.47;;;12.20;;
52590;SDS011;38483;42.620;25.394;2024-03-17T05:58:25;15.87;;;12.10;;
52590;SDS011;38483;42.620;25.394;2024-03-17T06:00:51;17.30;;;12.63;;
52590;SDS011;38483;42.620;25.394;2024-03-17T06:03:17;18.57;;;12.57;;
52590;SDS011;38483;42.620;25.394;2024-03-17T06:05:43;17.50;;;12.03;;
52590;SDS011;38483;42.620;25.394;2024-03-17T06:08:12;19.77;;;13.57;;
52590;SDS011;38483;42.620;25.394;2024-03-17T06:10:42;19.40;;;13.57;;
52590;SDS011;38483;42.620;25.394;2024-03-17T06:13:15;19.13;;;13.57;;
52590;SDS011;38483;42.620;25.394;2024-03-17T06:15:43;18.17;;;13.77;;
52590;SDS011;38483;42.620;25.394;2024-03-17T06:18:13;21.37;;;14.60;;
52590;SDS011;38483;42.620;25.394;2024-03-17T06:20:41;26.97;;;14.13;;
52590;SDS011;38483;42.620;25.394;2024-03-17T06:23:10;20.13;;;13.40;;
52590;SDS011;38483;42.620;25.394;2024-03-17T06:25:38;20.53;;;12.80;;
52590;SDS011;38483;42.620;25.394;2024-03-17T06:28:09;16.50;;;12.33;;
52590;SDS011;38483;42.620;25.394;2024-03-17T06:30:40;19.00;;;13.17;;
52590;SDS011;38483;42.620;25.394;2024-03-17T06:33:07;18.90;;;13.27;;
52590;SDS011;38483;42.620;25.394;2024-03-17T06:35:36;20.03;;;14.23;;
52590;SDS011;38483;42.620;25.394;2024-03-17T06:38:02;21.63;;;14.20;;
52590;SDS011;38483;42.620;25.394;2024-03-17T06:40:28;22.97;;;15.23;;
52590;SDS011;38483;42.620;25.394;2024-03-17T06:42:54;18.43;;;13.40;;
52590;SDS011;38483;42.620;25.394;2024-03-17T06:45:21;20.73;;;14.47;;
52590;SDS011;38483;42.620;25.394;2024-03-17T06:47:47;20.57;;;13.53;;
52590;SDS011;38483;42.620;25.394;2024-03-17T06:50:13;20.10;;;14.37;;
52590;SDS011;38483;42.620;25.394;2024-03-17T06:52:40;22.43;;;15.03;;
52590;SDS011;38483;42.620;25.394;2024-03-17T06:55:06;18.27;;;12.93;;
52590;SDS011;38483;42.620;25.394;2024-03-17T06:57:33;22.27;;;13.97;;
52590;SDS011;38483;42.620;25.394;2024-03-17T07:00:00;20.33;;;13.03;;
52590;SDS011;38483;42.620;25.394;2024-03-17T07:02:27;18.33;;;12.40;;
52590;SDS011;38483;42.620;25.394;2024-03-17T07:04:53;20.40;;;12.43;;
52590;SDS011;38483;42.620;25.394;2024-03-17T07:07:19;20.83;;;13.40;;
52590;SDS011;38483;42.620;25.394;2024-03-17T07:09:46;18.80;;;13.60;;
52590;SDS011;38483;42.620;25.394;2024-03-17T07:12:13;23.40;;;13.30;;
52590;SDS011;38483;42.620;25.394;2024-03-17T07:14:39;21.93;;;14.67;;
52590;SDS011;38483;42.620;25.394;2024-03-17T07:17:05;21.00;;;12.40;;
52590;SDS011;38483;42.620;25.394;2024-03-17T07:19:31;21.63;;;14.20;;
52590;SDS011;38483;42.620;25.394;2024-03-17T07:21:58;21.43;;;14.63;;
52590;SDS011;38483;42.620;25.394;2024-03-17T07:24:24;22.33;;;15.97;;
52590;SDS011;38483;42.620;25.394;2024-03-17T07:26:50;22.03;;;14.30;;
52590;SDS011;38483;42.620;25.394;2024-03-17T07:29:16;19.77;;;14.20;;
52590;SDS011;38483;42.620;25.394;2024-03-17T07:31:44;20.67;;;14.57;;
52590;SDS011;38483;42.620;25.394;2024-03-17T07:34:10;19.70;;;14.30;;
52590;SDS011;38483;42.620;25.394;2024-03-17T07:36:36;20.37;;;14.83;;
52590;SDS011;38483;42.620;25.394;2024-03-17T07:39:02;19.20;;;14.03;;
52590;SDS011;38483;42.620;25.394;2024-03-17T07:41:28;18.47;;;13.63;;
52590;SDS011;38483;42.620;25.394;2024-03-17T07:43:54;21.60;;;13.53;;
52590;SDS011;38483;42.620;25.394;2024-03-17T07:46:20;22.53;;;14.57;;
52590;SDS011;38483;42.620;25.394;2024-03-17T07:48:46;20.93;;;13.60;;
52590;SDS011;38483;42.620;25.394;2024-03-17T07:51:14;21.20;;;13.83;;
52590;SDS011;38483;42.620;25.394;2024-03-17T07:53:42;17.30;;;12.00;;
52590;SDS011;38483;42.620;25.394;2024-03-17T07:56:17;17.43;;;12.17;;
52590;SDS011;38483;42.620;25.394;2024-03-17T07:58:51;16.57;;;12.23;;
52590;SDS011;38483;42.620;25.394;2024-03-17T08:01:18;20.80;;;12.30;;
52590;SDS011;38483;42.620;25.394;2024-03-17T08:03:47;20.33;;;12.27;;
52590;SDS011;38483;42.620;25.394;2024-03-17T08:06:21;18.83;;;11.43;;
52590;SDS011;38483;42.620;25.394;2024-03-17T08:08:47;16.57;;;11.23;;
52590;SDS011;38483;42.620;25.394;2024-03-17T08:11:13;19.50;;;12.53;;
52590;SDS011;38483;42.620;25.394;2024-03-17T08:13:39;17.33;;;12.10;;
52590;SDS011;38483;42.620;25.394;2024-03-17T08:16:06;23.20;;;15.10;;
52590;SDS011;38483;42.620;25.394;2024-03-17T08:18:34;18.33;;;12.23;;
52590;SDS011;38483;42.620;25.394;2024-03-17T08:21:00;19.37;;;13.43;;
52590;SDS011;38483;42.620;25.394;2024-03-17T08:23:30;19.30;;;13.13;;
52590;SDS011;38483;42.620;25.394;2024-03-17T08:25:56;18.60;;;11.90;;
52590;SDS011;38483;42.620;25.394;2024-03-17T08:28:24;17.93;;;11.87;;
52590;SDS011;38483;42.620;25.394;2024-03-17T08:30:58;15.17;;;10.57;;
52590;SDS011;38483;42.620;25.394;2024-03-17T08:33:26;22.33;;;11.87;;
52590;SDS011;38483;42.620;25.394;2024-03-17T08:38:20;14.10;;;10.70;;
52590;SDS011;38483;42.620;25.394;2024-03-17T08:40:47;16.87;;;11.90;;
52590;SDS011;38483;42.620;25.394;2024-03-17T08:43:13;14.63;;;10.73;;
52590;SDS011;38483;42.620;25.394;2024-03-17T08:45:39;15.13;;;10.47;;
52590;SDS011;38483;42.620;25.394;2024-03-17T08:48:05;18.77;;;10.20;;
52590;SDS011;38483;42.620;25.394;2024-03-17T08:50:31;12.30;;;9.30;;
52590;SDS011;38483;42.620;25.394;2024-03-17T08:52:59;15.53;;;8.60;;
52590;SDS011;38483;42.620;25.394;2024-03-17T08:55:25;14.00;;;9.50;;
52590;SDS011;38483;42.620;25.394;2024-03-17T08:57:52;13.23;;;8.93;;
52590;SDS011;38483;42.620;25.394;2024-03-17T09:00:18;12.20;;;8.80;;
52590;SDS011;38483;42.620;25.394;2024-03-17T09:02:44;11.60;;;8.77;;
52590;SDS011;38483;42.620;25.394;2024-03-17T09:05:10;11.23;;;8.80;;
52590;SDS011;38483;42.620;25.394;2024-03-17T09:07:38;13.20;;;8.40;;
52590;SDS011;38483;42.620;25.394;2024-03-17T09:10:05;16.27;;;8.67;;
52590;SDS011;38483;42.620;25.394;2024-03-17T09:12:31;12.40;;;7.43;;
52590;SDS011;38483;42.620;25.394;2024-03-17T09:14:57;10.20;;;8.27;;
52590;SDS011;38483;42.620;25.394;2024-03-17T09:17:23;11.60;;;7.97;;
52590;SDS011;38483;42.620;25.394;2024-03-17T09:19:49;11.20;;;8.57;;
52590;SDS011;38483;42.620;25.394;2024-03-17T09:22:15;9.40;;;7.77;;
52590;SDS011;38483;42.620;25.394;2024-03-17T09:24:41;9.60;;;8.17;;
52590;SDS011;38483;42.620;25.394;2024-03-17T09:27:07;9.63;;;7.90;;
52590;SDS011;38483;42.620;25.394;2024-03-17T09:29:35;8.77;;;7.27;;
52590;SDS011;38483;42.620;25.394;2024-03-17T09:32:01;8.93;;;7.40;;
52590;SDS011;38483;42.620;25.394;2024-03-17T09:34:27;10.23;;;7.83;;
52590;SDS011;38483;42.620;25.394;2024-03-17T09:36:53;10.20;;;8.10;;
52590;SDS011;38483;42.620;25.394;2024-03-17T09:39:19;12.90;;;8.23;;
52590;SDS011;38483;42.620;25.394;2024-03-17T09:41:46;12.27;;;7.80;;
52590;SDS011;38483;42.620;25.394;2024-03-17T09:44:12;10.87;;;7.67;;
52590;SDS011;38483;42.620;25.394;2024-03-17T09:46:41;10.13;;;7.90;;
52590;SDS011;38483;42.620;25.394;2024-03-17T09:49:14;10.37;;;7.93;;
52590;SDS011;38483;42.620;25.394;2024-03-17T09:51:42;10.77;;;8.67;;
52590;SDS011;38483;42.620;25.394;2024-03-17T09:54:18;11.43;;;8.37;;
52590;SDS011;38483;42.620;25.394;2024-03-17T09:56:45;9.63;;;8.33;;
52590;SDS011;38483;42.620;25.394;2024-03-17T09:59:12;12.47;;;8.00;;
52590;SDS011;38483;42.620;25.394;2024-03-17T10:01:38;9.53;;;7.37;;
52590;SDS011;38483;42.620;25.394;2024-03-17T10:04:04;10.33;;;7.67;;
52590;SDS011;38483;42.620;25.394;2024-03-17T10:06:30;9.20;;;7.10;;
52590;SDS011;38483;42.620;25.394;2024-03-17T10:08:58;9.03;;;7.23;;
52590;SDS011;38483;42.620;25.394;2024-03-17T10:11:33;9.33;;;7.07;;
52590;SDS011;38483;42.620;25.394;2024-03-17T10:14:01;10.63;;;8.70;;
52590;SDS011;38483;42.620;25.394;2024-03-17T10:16:32;9.83;;;6.90;;
52590;SDS011;38483;42.620;25.394;2024-03-17T10:19:11;7.07;;;6.13;;
52590;SDS011;38483;42.620;25.394;2024-03-17T10:21:43;9.43;;;6.47;;
52590;SDS011;38483;42.620;25.394;2024-03-17T10:29:30;7.63;;;6.33;;
52590;SDS011;38483;42.620;25.394;2024-03-17T10:31:57;9.20;;;6.70;;
52590;SDS011;38483;42.620;25.394;2024-03-17T10:34:27;8.10;;;6.57;;
52590;SDS011;38483;42.620;25.394;2024-03-17T10:37:13;8.30;;;6.53;;
52590;SDS011;38483;42.620;25.394;2024-03-17T10:39:41;13.37;;;7.83;;
52590;SDS011;38483;42.620;25.394;2024-03-17T10:42:09;9.73;;;6.87;;
52590;SDS011;38483;42.620;25.394;2024-03-17T10:44:37;8.40;;;6.67;;
52590;SDS011;38483;42.620;25.394;2024-03-17T10:47:05;8.70;;;6.90;;
52590;SDS011;38483;42.620;25.394;2024-03-17T10:49:38;7.53;;;6.77;;
52590;SDS011;38483;42.620;25.394;2024-03-17T10:52:05;7.20;;;5.80;;
52590;SDS011;38483;42.620;25.394;2024-03-17T10:54:34;9.20;;;7.13;;
52590;SDS011;38483;42.620;25.394;2024-03-17T10:57:20;8.73;;;7.37;;
52590;SDS011;38483;42.620;25.394;2024-03-17T11:00:03;9.37;;;6.03;;
52590;SDS011;38483;42.620;25.394;2024-03-17T11:02:32;8.47;;;6.77;;
52590;SDS011;38483;42.620;25.394;2024-03-17T11:04:59;7.07;;;6.07;;
52590;SDS011;38483;42.620;25.394;2024-03-17T11:07:30;7.87;;;6.40;;
52590;SDS011;38483;42.620;25.394;2024-03-17T11:09:59;7.83;;;6.23;;
52590;SDS011;38483;42.620;25.394;2024-03-17T11:17:46;9.23;;;6.03;;
52590;SDS011;38483;42.620;25.394;2024-03-17T11:20:29;7.43;;;6.70;;
52590;SDS011;38483;42.620;25.394;2024-03-17T11:22:56;6.37;;;5.70;;
52590;SDS011;38483;42.620;25.394;2024-03-17T11:27:53;7.27;;;6.37;;
52590;SDS011;38483;42.620;25.394;2024-03-17T11:38:58;8.80;;;7.80;;
52590;SDS011;38483;42.620;25.394;2024-03-17T11:46:51;8.10;;;6.77;;
52590;SDS011;38483;42.620;25.394;2024-03-17T11:51:58;9.83;;;6.27;;
52590;SDS011;38483;42.620;25.394;2024-03-17T11:54:35;6.63;;;5.50;;
52590;SDS011;38483;42.620;25.394;2024-03-17T11:57:03;8.10;;;6.47;;
52590;SDS011;38483;42.620;25.394;2024-03-17T11:59:34;7.73;;;6.93;;
52590;SDS011;38483;42.620;25.394;2024-03-17T12:02:00;8.27;;;6.57;;
52590;SDS011;38483;42.620;25.394;2024-03-17T12:04:29;7.30;;;6.40;;
52590;SDS011;38483;42.620;25.394;2024-03-17T12:06:56;8.37;;;6.80;;
52590;SDS011;38483;42.620;25.394;2024-03-17T12:09:28;7.60;;;6.20;;
52590;SDS011;38483;42.620;25.394;2024-03-17T12:12:00;9.33;;;6.70;;
52590;SDS011;38483;42.620;25.394;2024-03-17T12:14:27;8.83;;;6.67;;
52590;SDS011;38483;42.620;25.394;2024-03-17T12:16:57;8.13;;;6.40;;
52590;SDS011;38483;42.620;25.394;2024-03-17T12:20:18;10.07;;;7.30;;
52590;SDS011;38483;42.620;25.394;2024-03-17T12:23:35;9.00;;;6.03;;
52590;SDS011;38483;42.620;25.394;2024-03-17T12:26:01;8.23;;;5.50;;
52590;SDS011;38483;42.620;25.394;2024-03-17T12:28:27;8.40;;;6.63;;
52590;SDS011;38483;42.620;25.394;2024-03-17T12:30:54;7.20;;;6.13;;
52590;SDS011;38483;42.620;25.394;2024-03-17T12:33:24;8.83;;;6.30;;
52590;SDS011;38483;42.620;25.394;2024-03-17T12:35:50;9.17;;;6.53;;
52590;SDS011;38483;42.620;25.394;2024-03-17T12:38:19;7.53;;;6.63;;
52590;SDS011;38483;42.620;25.394;2024-03-17T12:40:47;7.97;;;6.80;;
52590;SDS011;38483;42.620;25.394;2024-03-17T12:43:13;8.50;;;7.23;;
52590;SDS011;38483;42.620;25.394;2024-03-17T12:45:39;8.87;;;7.10;;
52590;SDS011;38483;42.620;25.394;2024-03-17T12:48:11;13.87;;;7.77;;
52590;SDS011;38483;42.620;25.394;2024-03-17T12:50:45;6.87;;;6.13;;
52590;SDS011;38483;42.620;25.394;2024-03-17T12:53:16;7.33;;;6.30;;
52590;SDS011;38483;42.620;25.394;2024-03-17T12:55:43;6.90;;;6.00;;
52590;SDS011;38483;42.620;25.394;2024-03-17T12:58:37;8.57;;;5.67;;
52590;SDS011;38483;42.620;25.394;2024-03-17T13:01:22;7.20;;;6.20;;
52590;SDS011;38483;42.620;25.394;2024-03-17T13:03:48;7.07;;;5.67;;
52590;SDS011;38483;42.620;25.394;2024-03-17T13:06:24;8.53;;;5.93;;
52590;SDS011;38483;42.620;25.394;2024-03-17T13:09:42;6.73;;;5.93;;
52590;SDS011;38483;42.620;25.394;2024-03-17T13:13:03;8.63;;;5.67;;
52590;SDS011;38483;42.620;25.394;2024-03-17T13:15:33;7.23;;;5.20;;
52590;SDS011;38483;42.620;25.394;2024-03-17T13:18:03;5.27;;;4.63;;
52590;SDS011;38483;42.620;25.394;2024-03-17T13:20:30;6.40;;;4.80;;
52590;SDS011;38483;42.620;25.394;2024-03-17T13:22:57;7.70;;;6.13;;
52590;SDS011;38483;42.620;25.394;2024-03-17T13:25:30;7.80;;;5.27;;
52590;SDS011;38483;42.620;25.394;2024-03-17T13:28:00;6.37;;;5.67;;
52590;SDS011;38483;42.620;25.394;2024-03-17T13:30:26;6.00;;;5.40;;
52590;SDS011;38483;42.620;25.394;2024-03-17T13:32:54;13.17;;;5.67;;
52590;SDS011;38483;42.620;25.394;2024-03-17T13:35:24;6.17;;;5.40;;
52590;SDS011;38483;42.620;25.394;2024-03-17T13:37:52;6.53;;;5.20;;
52590;SDS011;38483;42.620;25.394;2024-03-17T13:40:22;6.43;;;5.83;;
52590;SDS011;38483;42.620;25.394;2024-03-17T13:42:49;6.13;;;5.53;;
52590;SDS011;38483;42.620;25.394;2024-03-17T13:45:17;8.47;;;6.30;;
52590;SDS011;38483;42.620;25.394;2024-03-17T13:47:46;6.77;;;5.37;;
52590;SDS011;38483;42.620;25.394;2024-03-17T13:50:14;7.17;;;5.20;;
52590;SDS011;38483;42.620;25.394;2024-03-17T13:52:41;5.73;;;4.93;;
52590;SDS011;38483;42.620;25.394;2024-03-17T13:55:18;7.07;;;4.80;;
52590;SDS011;38483;42.620;25.394;2024-03-17T13:57:52;9.00;;;5.10;;
52590;SDS011;38483;42.620;25.394;2024-03-17T14:00:20;7.50;;;5.43;;
52590;SDS011;38483;42.620;25.394;2024-03-17T14:02:47;5.37;;;4.73;;
52590;SDS011;38483;42.620;25.394;2024-03-17T14:05:16;8.63;;;4.73;;
52590;SDS011;38483;42.620;25.394;2024-03-17T14:07:44;7.03;;;4.63;;
52590;SDS011;38483;42.620;25.394;2024-03-17T14:10:12;8.53;;;4.30;;
52590;SDS011;38483;42.620;25.394;2024-03-17T14:12:40;5.80;;;4.90;;
52590;SDS011;38483;42.620;25.394;2024-03-17T14:15:07;5.77;;;4.97;;
52590;SDS011;38483;42.620;25.394;2024-03-17T14:17:37;7.53;;;5.10;;
52590;SDS011;38483;42.620;25.394;2024-03-17T14:20:05;5.93;;;4.33;;
52590;SDS011;38483;42.620;25.394;2024-03-17T14:22:38;5.70;;;4.30;;
52590;SDS011;38483;42.620;25.394;2024-03-17T14:25:05;6.80;;;4.47;;
52590;SDS011;38483;42.620;25.394;2024-03-17T14:27:32;5.40;;;3.90;;
52590;SDS011;38483;42.620;25.394;2024-03-17T14:30:00;7.47;;;3.90;;
52590;SDS011;38483;42.620;25.394;2024-03-17T14:32:26;6.67;;;3.80;;
52590;SDS011;38483;42.620;25.394;2024-03-17T14:34:53;3.50;;;2.90;;
52590;SDS011;38483;42.620;25.394;2024-03-17T14:37:19;7.03;;;3.63;;
52590;SDS011;38483;42.620;25.394;2024-03-17T14:39:45;7.20;;;4.20;;
52590;SDS011;38483;42.620;25.394;2024-03-17T14:42:11;3.37;;;3.00;;
52590;SDS011;38483;42.620;25.394;2024-03-17T14:44:37;4.97;;;3.23;;
52590;SDS011;38483;42.620;25.394;2024-03-17T14:47:03;3.97;;;2.90;;
52590;SDS011;38483;42.620;25.394;2024-03-17T14:49:30;4.50;;;3.40;;
52590;SDS011;38483;42.620;25.394;2024-03-17T14:51:56;4.47;;;3.37;;
52590;SDS011;38483;42.620;25.394;2024-03-17T14:54:22;3.40;;;3.00;;
52590;SDS011;38483;42.620;25.394;2024-03-17T14:56:48;9.80;;;5.40;;